Time;durP1;ratioP1;P1;durP2;ratioP2;P2;SDS_P1;SDS_P2;PMS_P1;PMS_P2;Temp;Humidity;BMP_temperature;BMP_pressure;BME280_temperature;BME280_humidity;BME280_pressure;Samples;Min_cycle;Max_cycle;Signal;HPM_P1;HPM_P2
2021/08/19 00:04:44;;;;;;;12.85;6.38;;;;;;;20.15;64.44;101341.66;10483010;28;20475;-86
2021/08/19 00:09:44;;;;;;;9.15;6.45;;;;;;;20.19;64.64;101331.81;10484934;28;20111;-86
2021/08/19 00:14:45;;;;;;;8.25;6.43;;;;;;;20.14;64.87;101329.81;10518739;28;20449;-86
2021/08/19 00:19:46;;;;;;;7.43;5.65;;;;;;;19.98;65.07;101308.69;10517039;28;20042;-86
2021/08/19 00:24:46;;;;;;;7.70;6.20;;;;;;;20.18;64.98;101335.66;10500564;28;20216;-86
2021/08/19 00:29:47;;;;;;;15.13;8.07;;;;;;;20.04;65.10;101320.56;10517067;28;20115;-86
2021/08/19 00:34:47;;;;;;;10.13;6.35;;;;;;;20.15;65.49;101341.66;10517515;28;20040;-86
2021/08/19 00:39:51;;;;;;;6.90;6.30;;;;;;;20.14;65.42;101329.81;10534737;28;20056;-86
2021/08/19 00:44:51;;;;;;;9.55;6.57;;;;;;;20.13;65.62;101322.66;10516710;28;20486;-86
2021/08/19 00:49:52;;;;;;;12.50;6.35;;;;;;;20.12;65.42;101323.75;10498431;28;20093;-86
2021/08/19 00:54:53;;;;;;;11.68;6.68;;;;;;;20.14;65.51;101324.31;10499329;28;20366;-86
2021/08/19 00:59:53;;;;;;;9.65;7.60;;;;;;;20.12;65.72;101318.25;10515934;28;20431;-86
2021/08/19 01:04:54;;;;;;;15.00;6.47;;;;;;;19.93;65.46;101314.91;10515555;28;20123;-86
2021/08/19 01:09:55;;;;;;;10.00;6.95;;;;;;;19.67;65.54;101308.16;10515018;28;20055;-86
2021/08/19 01:14:56;;;;;;;9.57;7.30;;;;;;;19.27;65.73;101280.75;10498226;28;20486;-87
2021/08/19 01:19:57;;;;;;;9.02;6.57;;;;;;;19.00;66.47;101278.59;10514688;28;20036;-87
2021/08/19 01:24:58;;;;;;;11.50;7.75;;;;;;;19.08;66.77;101312.22;10500855;28;20425;-87
2021/08/19 01:29:59;;;;;;;10.80;7.20;;;;;;;19.00;66.66;101321.69;10520415;28;20101;-87
2021/08/19 01:35:00;;;;;;;10.48;8.15;;;;;;;18.85;66.98;101310.38;10487381;28;20044;-87
2021/08/19 01:40:01;;;;;;;15.48;9.80;;;;;;;18.42;67.72;101265.84;10517716;28;20043;-87
2021/08/19 01:45:01;;;;;;;16.75;9.20;;;;;;;18.73;67.88;101300.28;10501792;28;20512;-87
2021/08/19 01:50:04;;;;;;;15.65;8.32;;;;;;;18.95;68.10;101318.81;10512775;28;20036;-86
2021/08/19 01:55:05;;;;;;;9.75;8.48;;;;;;;19.02;67.86;101309.38;10512866;28;20032;-86
2021/08/19 02:00:06;;;;;;;13.70;9.07;;;;;;;19.12;67.97;101321.66;10497914;28;20447;-86
2021/08/19 02:05:10;;;;;;;11.00;8.52;;;;;;;19.23;67.76;101320.75;10497599;28;20082;-86
2021/08/19 02:10:10;;;;;;;12.15;8.35;;;;;;;19.34;67.50;101316.31;10514401;28;20168;-87
2021/08/19 02:15:12;;;;;;;8.77;7.53;;;;;;;19.40;67.60;101313.41;10514665;28;20043;-86
2021/08/19 02:20:12;;;;;;;11.63;6.95;;;;;;;19.47;67.53;101316.00;10497344;28;20054;-86
2021/08/19 02:25:13;;;;;;;9.25;7.93;;;;;;;19.50;67.36;101299.03;10497719;28;20345;-87
2021/08/19 02:30:14;;;;;;;11.98;7.75;;;;;;;19.63;67.52;101312.44;10514392;28;20130;-87
2021/08/19 02:35:16;;;;;;;9.90;7.20;;;;;;;19.67;67.53;101313.66;10499476;28;20044;-86
2021/08/19 02:40:16;;;;;;;10.40;7.20;;;;;;;19.65;67.61;101298.47;10534785;28;20044;-87
2021/08/19 02:45:20;;;;;;;16.83;7.40;;;;;;;19.72;67.14;101300.00;10499398;28;20035;-87
2021/08/19 02:50:21;;;;;;;10.65;7.50;;;;;;;19.77;67.51;101304.75;10514473;28;20036;-86
2021/08/19 02:55:22;;;;;;;18.17;8.55;;;;;;;19.59;67.39;101260.97;10498387;28;20032;-86
2021/08/19 03:00:22;;;;;;;8.43;7.40;;;;;;;19.79;67.28;101296.28;10495852;28;20032;-86
2021/08/19 03:05:23;;;;;;;10.75;8.13;;;;;;;19.81;67.41;101292.16;10531971;28;20036;-86
2021/08/19 03:10:23;;;;;;;10.05;6.70;;;;;;;19.38;67.06;101205.72;10514528;28;20108;-86
2021/08/19 03:15:24;;;;;;;6.47;5.88;;;;;;;19.93;67.05;101297.59;10516864;28;20448;-86
2021/08/19 03:20:25;;;;;;;8.02;5.88;;;;;;;19.86;67.04;101285.94;10520473;28;20039;-86
2021/08/19 03:25:26;;;;;;;5.45;4.63;;;;;;;19.92;66.95;101287.69;10504176;28;20044;-87
2021/08/19 03:30:27;;;;;;;10.50;6.50;;;;;;;19.78;66.90;101267.94;10539452;28;20036;-86
2021/08/19 03:35:27;;;;;;;9.90;5.70;;;;;;;19.86;66.91;101274.94;10521419;28;20063;-86
2021/08/19 03:40:28;;;;;;;10.63;5.25;;;;;;;19.91;66.79;101286.00;10538241;28;20028;-87
2021/08/19 03:45:29;;;;;;;10.68;5.22;;;;;;;19.93;67.27;101278.34;10504009;28;20106;-86
2021/08/19 03:50:30;;;;;;;5.85;5.10;;;;;;;19.90;67.49;101276.94;10519862;28;20044;-87
2021/08/19 03:55:30;;;;;;;4.88;4.38;;;;;;;19.87;66.72;101254.59;10538612;28;20035;-87
2021/08/19 04:00:31;;;;;;;4.72;4.03;;;;;;;20.04;66.12;101282.94;10504030;28;20032;-87
2021/08/19 04:05:31;;;;;;;5.53;4.07;;;;;;;20.05;66.22;101275.50;10520651;28;20527;-87
2021/08/19 04:10:32;;;;;;;5.43;4.85;;;;;;;20.10;66.06;101275.56;10503584;28;20130;-87
2021/08/19 04:15:32;;;;;;;5.40;4.13;;;;;;;20.04;65.79;101252.69;10503301;28;20111;-87
2021/08/19 04:20:34;;;;;;;8.15;3.97;;;;;;;20.09;65.98;101261.00;10520132;28;20051;-87
2021/08/19 04:25:34;;;;;;;4.28;3.58;;;;;;;20.00;66.45;101257.00;10537878;28;20404;-87
2021/08/19 04:30:35;;;;;;;3.67;3.40;;;;;;;19.60;65.89;101211.28;10520090;28;20134;-87
2021/08/19 04:35:37;;;;;;;5.78;4.50;;;;;;;19.57;65.67;101192.56;10520481;28;20036;-87
2021/08/19 04:40:37;;;;;;;8.32;4.70;;;;;;;19.85;65.98;101232.06;10503660;28;20391;-85
2021/08/19 04:45:38;;;;;;;5.20;4.70;;;;;;;19.82;67.05;101254.53;10503985;28;20079;-84
2021/08/19 04:50:38;;;;;;;10.20;3.90;;;;;;;20.14;65.97;101272.09;10522837;28;20115;-87
2021/08/19 04:55:39;;;;;;;6.13;4.65;;;;;;;20.10;66.20;101265.44;10545571;28;20064;-85
2021/08/19 05:00:39;;;;;;;6.18;4.72;;;;;;;20.05;66.33;101257.09;10517162;28;20050;-87
2021/08/19 05:05:40;;;;;;;5.15;4.75;;;;;;;20.18;66.28;101278.75;10534682;28;20036;-87
2021/08/19 05:10:40;;;;;;;9.18;4.88;;;;;;;20.14;66.28;101283.09;10514726;28;20078;-87
2021/08/19 05:15:41;;;;;;;4.00;3.53;;;;;;;20.07;66.48;101285.19;10439875;28;20113;-86
2021/08/19 05:20:41;;;;;;;8.13;5.28;;;;;;;20.10;66.57;101289.31;10492668;28;20706;-85
2021/08/19 05:25:42;;;;;;;10.95;6.50;;;;;;;20.12;66.41;101288.00;10501376;28;20380;-85
2021/08/19 05:30:42;;;;;;;9.90;6.38;;;;;;;20.06;66.81;101283.50;10517431;28;20126;-85
2021/08/19 05:35:43;;;;;;;16.35;7.15;;;;;;;20.14;66.43;101294.09;10517289;28;20428;-85
2021/08/19 05:40:43;;;;;;;14.02;7.85;;;;;;;20.05;66.54;101281.00;10480851;28;20052;-85
2021/08/19 05:45:44;;;;;;;13.30;7.75;;;;;;;20.15;67.00;101308.66;10515066;28;20150;-85
2021/08/19 05:50:44;;;;;;;9.10;6.60;;;;;;;20.14;66.54;101293.25;10533379;28;20101;-85
2021/08/19 05:55:45;;;;;;;17.25;7.18;;;;;;;20.10;66.62;101303.06;10498298;28;20035;-85
2021/08/19 06:00:50;;;;;;;8.50;6.95;;;;;;;19.84;66.76;101257.84;10532997;28;20123;-85
2021/08/19 06:05:51;;;;;;;9.25;6.53;;;;;;;20.20;66.47;101311.50;10513865;28;20467;-85
2021/08/19 06:10:53;;;;;;;8.95;6.35;;;;;;;20.21;66.49;101305.72;10496870;28;20574;-85
2021/08/19 06:15:55;;;;;;;9.82;6.60;;;;;;;20.19;66.30;101305.13;10513063;28;20086;-85
2021/08/19 06:20:55;;;;;;;15.07;8.75;;;;;;;20.30;66.28;101310.81;10531062;28;20178;-85
2021/08/19 06:25:55;;;;;;;8.10;7.22;;;;;;;20.23;66.97;101301.88;10513481;28;20077;-85
2021/08/19 06:30:57;;;;;;;10.02;7.47;;;;;;;20.32;66.24;101294.88;10496350;28;20141;-85
2021/08/19 06:35:57;;;;;;;10.25;6.97;;;;;;;20.27;66.50;101305.81;10513215;28;20024;-85
2021/08/19 06:40:58;;;;;;;9.10;6.90;;;;;;;20.40;66.21;101311.78;10529549;28;20048;-86
2021/08/19 06:45:58;;;;;;;13.07;8.48;;;;;;;20.35;66.59;101308.94;10511104;28;20141;-85
2021/08/19 06:51:01;;;;;;;14.27;8.60;;;;;;;20.45;66.33;101319.28;10494897;28;20050;-85
2021/08/19 06:56:05;;;;;;;11.80;8.27;;;;;;;20.48;66.39;101315.19;10512310;28;20119;-85
2021/08/19 07:01:05;;;;;;;8.20;6.68;;;;;;;20.38;66.18;101302.13;10511625;28;20054;-85
2021/08/19 07:06:12;;;;;;;7.93;7.20;;;;;;;20.31;66.53;101304.22;10511218;28;20035;-85
2021/08/19 07:11:12;;;;;;;12.88;8.23;;;;;;;20.20;66.90;101295.81;10511380;28;20044;-85
2021/08/19 07:16:13;;;;;;;11.70;6.55;;;;;;;20.34;66.90;101321.03;10529788;28;20036;-84
2021/08/19 07:21:14;;;;;;;9.27;7.25;;;;;;;20.20;66.66;101312.31;10510372;28;20067;-85
2021/08/19 07:26:14;;;;;;;11.35;7.07;;;;;;;20.25;67.04;101313.47;10511660;28;20055;-83
2021/08/19 07:31:14;;;;;;;6.57;5.88;;;;;;;20.02;66.87;101295.25;10529859;28;20355;-85
2021/08/19 07:36:15;;;;;;;10.80;6.10;;;;;;;20.17;67.06;101290.84;10533162;28;20043;-85
2021/08/19 07:41:15;;;;;;;10.88;7.07;;;;;;;20.33;66.50;101321.31;10532995;28;20127;-84
2021/08/19 07:46:16;;;;;;;7.38;5.93;;;;;;;20.69;66.11;101330.09;10532409;28;20085;-85
2021/08/19 07:51:16;;;;;;;10.77;7.38;;;;;;;20.63;66.21;101315.44;10532749;28;20032;-85
2021/08/19 07:56:17;;;;;;;6.47;5.82;;;;;;;20.65;66.12;101322.34;10533176;28;20070;-85
2021/08/19 08:01:18;;;;;;;14.20;6.55;;;;;;;20.71;65.89;101349.94;10533506;28;20036;-84
2021/08/19 08:06:18;;;;;;;7.95;6.43;;;;;;;20.77;66.05;101348.91;10534014;28;20152;-85
2021/08/19 08:11:19;;;;;;;9.55;6.38;;;;;;;20.88;65.91;101357.06;10534177;28;20040;-85
2021/08/19 08:16:19;;;;;;;8.48;6.70;;;;;;;20.99;65.96;101366.28;10498953;28;20064;-85
2021/08/19 08:21:19;;;;;;;11.48;6.53;;;;;;;20.98;65.54;101361.88;10515121;28;20367;-85
2021/08/19 08:26:20;;;;;;;8.15;6.97;;;;;;;21.00;65.13;101361.63;10479231;28;20212;-85
2021/08/19 08:31:21;;;;;;;10.75;6.32;;;;;;;20.61;66.31;101301.09;10499942;28;20044;-85
2021/08/19 08:36:22;;;;;;;7.97;5.85;;;;;;;20.99;65.81;101373.69;10500065;28;20107;-85
2021/08/19 08:41:23;;;;;;;8.50;5.47;;;;;;;21.08;64.76;101359.22;10500009;28;20127;-85
2021/08/19 08:46:23;;;;;;;8.35;6.03;;;;;;;21.05;64.78;101368.00;10498145;28;20036;-85
2021/08/19 08:51:23;;;;;;;6.90;6.20;;;;;;;20.73;64.72;101309.22;10495012;28;20456;-85
2021/08/19 08:56:25;;;;;;;6.25;5.65;;;;;;;21.07;65.10;101382.38;10495876;28;20059;-85
2021/08/19 09:01:25;;;;;;;9.38;6.40;;;;;;;20.94;65.22;101388.25;10479463;28;20056;-85
2021/08/19 09:06:42;;;;;;;7.55;5.57;;;;;;;20.99;65.43;101392.97;10496388;28;20425;-85
2021/08/19 09:11:47;;;;;;;12.45;6.15;;;;;;;20.78;65.31;101350.59;10496500;28;20044;-85
2021/08/19 09:16:47;;;;;;;9.38;6.45;;;;;;;20.89;65.53;101341.38;10496513;28;20040;-85
2021/08/19 09:21:53;;;;;;;9.60;6.22;;;;;;;21.18;64.98;101343.91;10479117;28;20037;-85
2021/08/19 09:26:54;;;;;;;8.13;6.63;;;;;;;21.46;63.98;101342.91;10495756;28;20052;-85
2021/08/19 09:32:18;;;;;;;9.82;5.85;;;;;;;22.14;64.66;101388.19;10495707;28;20469;-85
2021/08/19 09:37:19;;;;;;;16.33;7.72;;;;;;;22.54;62.82;101395.16;10496122;28;20025;-85
2021/08/19 09:42:20;;;;;;;6.95;5.05;;;;;;;22.75;61.86;101385.91;10495621;28;20048;-85
2021/08/19 09:47:33;;;;;;;6.00;5.10;;;;;;;22.92;63.07;101385.72;10495794;28;20483;-85
2021/08/19 09:52:34;;;;;;;7.57;5.63;;;;;;;22.71;61.73;101375.66;10494711;28;20036;-85
2021/08/19 09:57:34;;;;;;;5.03;4.63;;;;;;;22.86;62.32;101359.19;10508778;28;20094;-85
2021/08/19 10:02:35;;;;;;;5.82;5.32;;;;;;;23.04;60.08;101390.22;10492088;28;20060;-85
2021/08/19 10:07:35;;;;;;;5.82;3.78;;;;;;;23.29;60.52;101392.25;10492922;28;20040;-85
2021/08/19 10:12:41;;;;;;;5.30;4.80;;;;;;;23.43;59.57;101390.66;10491927;28;20396;-86
2021/08/19 10:17:45;;;;;;;7.57;4.07;;;;;;;23.08;60.67;101345.22;10491233;28;20091;-85
2021/08/19 10:22:48;;;;;;;4.07;3.67;;;;;;;22.32;59.18;101251.81;10495113;28;20059;-85
2021/08/19 10:28:10;;;;;;;3.92;3.50;;;;;;;23.13;59.88;101388.59;10518973;28;20119;-85
2021/08/19 10:33:11;;;;;;;7.28;4.55;;;;;;;22.86;59.39;101348.13;10532396;28;20039;-85
2021/08/19 10:38:12;;;;;;;11.65;4.53;;;;;;;22.81;58.85;101388.69;10499108;28;20498;-85
2021/08/19 10:43:32;;;;;;;23.38;10.82;;;;;;;22.88;61.28;101390.13;10498093;28;20135;-84
2021/08/19 10:48:49;;;;;;;5.53;3.95;;;;;;;22.49;60.70;101373.91;10533228;28;20028;-85
2021/08/19 10:53:50;;;;;;;14.52;5.40;;;;;;;22.28;60.93;101394.97;10495616;28;20112;-85
2021/08/19 10:58:50;;;;;;;29.80;8.80;;;;;;;22.16;60.41;101382.47;10511594;28;20032;-85
2021/08/19 11:03:52;;;;;;;3.63;3.33;;;;;;;22.02;60.94;101395.84;10512078;28;20055;-85
2021/08/19 11:08:57;;;;;;;6.63;5.75;;;;;;;22.02;61.11;101396.66;10511904;28;20504;-85
2021/08/19 11:14:12;;;;;;;5.80;5.28;;;;;;;22.13;61.94;101407.78;10512594;28;20109;-85
2021/08/19 11:19:39;;;;;;;5.03;4.50;;;;;;;21.69;62.59;101402.38;10530100;28;20439;-85
2021/08/19 11:24:39;;;;;;;9.23;5.20;;;;;;;21.27;63.52;101400.22;10526944;28;20075;-85
2021/08/19 11:29:43;;;;;;;5.80;4.72;;;;;;;20.77;64.88;101409.47;10530407;28;20489;-84
2021/08/19 11:34:50;;;;;;;6.75;6.05;;;;;;;20.10;65.80;101339.66;10510281;28;20036;-85
2021/08/19 11:39:55;;;;;;;7.38;6.28;;;;;;;20.29;66.98;101419.97;10527218;28;20066;-85
2021/08/19 11:45:18;;;;;;;7.45;5.97;;;;;;;20.29;67.64;101425.47;10509352;28;20493;-85
2021/08/19 11:50:22;;;;;;;8.23;7.43;;;;;;;20.15;68.87;101411.22;10526291;28;20043;-85
2021/08/19 11:55:27;;;;;;;9.30;7.35;;;;;;;20.49;68.88;101430.50;10527163;28;20044;-85
2021/08/19 12:00:27;;;;;;;12.35;7.72;;;;;;;20.68;68.47;101431.09;10532666;28;20534;-85
2021/08/19 12:05:28;;;;;;;9.35;6.80;;;;;;;20.27;68.58;101378.16;10537010;28;20183;-84
2021/08/19 12:10:29;;;;;;;8.20;6.78;;;;;;;20.41;68.79;101433.66;10536846;28;20155;-84
2021/08/19 12:15:29;;;;;;;6.38;5.82;;;;;;;20.02;69.55;101433.53;10518698;28;20106;-84
2021/08/19 12:20:31;;;;;;;9.48;7.10;;;;;;;20.09;70.29;101436.13;10517263;28;20123;-84
2021/08/19 12:25:32;;;;;;;9.05;7.22;;;;;;;20.06;70.08;101431.13;10536887;28;20087;-84
2021/08/19 12:30:32;;;;;;;5.65;5.03;;;;;;;20.08;69.77;101445.47;10501501;28;20123;-83
2021/08/19 12:35:33;;;;;;;5.05;4.65;;;;;;;19.17;69.71;101308.84;10538336;28;20039;-79
2021/08/19 12:40:34;;;;;;;7.20;6.60;;;;;;;19.40;71.15;101453.50;10541550;28;20047;-81
2021/08/19 12:45:36;;;;;;;7.97;7.20;;;;;;;19.31;71.39;101446.69;10507118;28;20057;-81
2021/08/19 12:50:37;;;;;;;11.48;7.90;;;;;;;19.29;71.83;101444.19;10537707;28;20043;-81
2021/08/19 12:55:38;;;;;;;9.82;8.25;;;;;;;19.18;71.94;101453.28;10536836;28;20110;-82
2021/08/19 13:00:38;;;;;;;13.73;7.03;;;;;;;19.20;71.88;101439.31;10538767;28;20032;-83
2021/08/19 13:05:39;;;;;;;16.35;9.23;;;;;;;19.45;71.51;101425.28;10534873;28;20434;-82
2021/08/19 13:10:40;;;;;;;6.32;5.72;;;;;;;19.57;70.13;101442.56;10531241;28;20530;-85
2021/08/19 13:15:40;;;;;;;7.78;6.85;;;;;;;19.73;69.68;101440.97;10532654;28;20509;-86
2021/08/19 13:20:42;;;;;;;15.15;6.78;;;;;;;19.65;69.01;101447.69;10514728;28;20043;-86
2021/08/19 13:25:43;;;;;;;14.43;6.60;;;;;;;19.72;68.52;101440.16;10516156;28;20075;-86
2021/08/19 13:30:43;;;;;;;10.32;7.50;;;;;;;19.82;68.59;101453.25;10517226;28;20047;-86
2021/08/19 13:35:44;;;;;;;14.68;8.80;;;;;;;19.64;68.64;101418.53;10483155;28;20052;-87
2021/08/19 13:40:44;;;;;;;8.45;7.47;;;;;;;19.54;67.90;101392.78;10515902;28;20119;-86
2021/08/19 13:45:49;;;;;;;12.70;7.70;;;;;;;19.61;67.84;101418.19;10518560;28;20103;-85
2021/08/19 13:50:50;;;;;;;14.85;7.70;;;;;;;20.07;67.92;101444.66;10515286;28;20056;-86
2021/08/19 13:55:50;;;;;;;14.10;7.05;;;;;;;20.15;66.96;101446.97;10535446;28;20144;-86
2021/08/19 14:00:51;;;;;;;8.25;6.50;;;;;;;19.97;66.96;101423.31;10499202;28;20038;-85
2021/08/19 14:05:52;;;;;;;9.73;5.82;;;;;;;20.25;66.40;101421.56;10534820;28;20067;-84
2021/08/19 14:10:52;;;;;;;9.52;6.25;;;;;;;20.60;65.23;101442.53;10515180;28;20435;-84
2021/08/19 14:15:52;;;;;;;7.38;5.80;;;;;;;20.55;65.63;101402.00;10515917;28;20059;-84
2021/08/19 14:20:53;;;;;;;6.32;5.68;;;;;;;20.57;65.39;101429.25;10531471;28;20060;-84
2021/08/19 14:25:54;;;;;;;7.53;6.03;;;;;;;20.38;64.42;101363.47;10496771;28;20063;-84
2021/08/19 14:30:54;;;;;;;19.52;5.93;;;;;;;20.48;63.40;101362.78;10498516;28;20051;-83
2021/08/19 14:35:55;;;;;;;9.48;7.07;;;;;;;20.86;63.44;101424.47;10516332;28;20119;-84
2021/08/19 14:40:55;;;;;;;6.25;5.43;;;;;;;20.52;63.87;101375.00;10533111;28;20454;-85
2021/08/19 14:45:56;;;;;;;5.50;5.00;;;;;;;20.88;62.80;101425.88;10534187;28;20142;-85
2021/08/19 14:50:56;;;;;;;11.77;6.20;;;;;;;20.78;63.32;101431.25;10531924;28;20032;-86
2021/08/19 14:55:58;;;;;;;6.05;4.80;;;;;;;20.72;62.79;101420.41;10531565;28;20493;-85
2021/08/19 15:00:58;;;;;;;8.23;5.13;;;;;;;20.64;62.41;101419.75;10512493;28;20054;-85
2021/08/19 15:06:02;;;;;;;9.20;5.30;;;;;;;20.94;61.81;101429.53;10536220;28;20032;-85
2021/08/19 15:11:02;;;;;;;8.73;4.47;;;;;;;20.56;61.67;101408.34;10521322;28;20032;-85
2021/08/19 15:16:04;;;;;;;7.07;5.45;;;;;;;20.37;62.30;101360.97;10539671;28;20028;-85
2021/08/19 15:21:05;;;;;;;13.10;5.35;;;;;;;20.71;60.97;101418.72;10521235;28;20036;-85
2021/08/19 15:26:05;;;;;;;6.35;4.82;;;;;;;20.16;61.04;101348.81;10539336;28;20063;-84
2021/08/19 15:31:07;;;;;;;7.03;5.80;;;;;;;20.82;60.70;101421.38;10521287;28;20062;-85
2021/08/19 15:36:07;;;;;;;11.32;5.45;;;;;;;20.55;63.85;101363.50;10520487;28;20110;-85
2021/08/19 15:41:12;;;;;;;5.40;3.70;;;;;;;20.71;61.97;101421.47;10503912;28;20547;-85
2021/08/19 15:46:13;;;;;;;7.50;5.18;;;;;;;20.35;61.86;101363.13;10538939;28;20032;-85
2021/08/19 15:51:14;;;;;;;10.52;5.68;;;;;;;20.71;62.23;101422.34;10499817;28;20456;-84
2021/08/19 15:56:18;;;;;;;7.28;5.30;;;;;;;20.50;61.63;101374.38;10528579;28;20072;-84
2021/08/19 16:01:19;;;;;;;5.55;5.07;;;;;;;20.54;61.99;101405.00;10511907;28;20517;-85
2021/08/19 16:06:19;;;;;;;9.73;6.53;;;;;;;19.85;62.13;101325.50;10514327;28;20201;-85
2021/08/19 16:11:20;;;;;;;7.50;6.07;;;;;;;20.50;61.68;101415.66;10513754;28;20253;-84
2021/08/19 16:16:20;;;;;;;10.30;6.35;;;;;;;20.25;61.26;101416.06;10499690;28;20424;-84
2021/08/19 16:21:21;;;;;;;6.03;5.28;;;;;;;20.44;60.57;101408.41;10512414;28;20067;-85
2021/08/19 16:26:21;;;;;;;6.50;5.90;;;;;;;20.38;60.71;101418.47;10529107;28;20142;-84
2021/08/19 16:31:22;;;;;;;11.70;5.18;;;;;;;20.18;61.23;101413.47;10497800;28;20214;-84
2021/08/19 16:36:27;;;;;;;5.82;5.15;;;;;;;19.95;61.28;101375.16;10499037;28;20480;-85
2021/08/19 16:41:28;;;;;;;5.05;4.55;;;;;;;20.33;60.06;101417.59;10531679;28;20051;-84
2021/08/19 16:46:29;;;;;;;6.05;5.32;;;;;;;20.40;60.68;101421.00;10515624;28;20386;-84
2021/08/19 16:51:30;;;;;;;8.45;5.10;;;;;;;20.50;60.01;101415.66;10502953;28;20462;-84
2021/08/19 16:56:31;;;;;;;12.43;5.63;;;;;;;20.38;60.76;101426.72;10519079;28;20032;-83
2021/08/19 17:01:32;;;;;;;7.60;5.15;;;;;;;20.26;60.87;101422.38;10522212;28;20032;-84
2021/08/19 17:06:33;;;;;;;7.50;5.05;;;;;;;20.24;62.42;101413.56;10517700;28;20495;-84
2021/08/19 17:11:33;;;;;;;13.45;5.47;;;;;;;19.98;62.90;101385.66;10502232;28;20154;-84
2021/08/19 17:16:34;;;;;;;5.80;4.38;;;;;;;20.32;61.62;101426.91;10536635;28;20117;-84
2021/08/19 17:21:35;;;;;;;10.77;4.90;;;;;;;20.11;62.01;101396.31;10520988;28;20502;-85
2021/08/19 17:26:36;;;;;;;16.10;6.38;;;;;;;20.17;62.40;101422.00;10536570;28;20052;-84
2021/08/19 17:31:36;;;;;;;10.98;4.28;;;;;;;20.20;62.12;101424.25;10534819;28;20035;-85
2021/08/19 17:36:36;;;;;;;5.22;4.80;;;;;;;19.93;62.03;101418.53;10499698;28;20028;-85
2021/08/19 17:41:39;;;;;;;7.07;4.28;;;;;;;19.74;61.33;101437.97;10516402;28;20040;-84
2021/08/19 17:46:40;;;;;;;7.40;5.47;;;;;;;19.71;61.63;101427.47;10497432;28;20032;-84
2021/08/19 17:51:40;;;;;;;7.28;6.18;;;;;;;19.91;61.29;101417.94;10514146;28;20546;-85
2021/08/19 17:56:41;;;;;;;11.50;6.57;;;;;;;19.92;61.94;101414.94;10531725;28;20040;-84
2021/08/19 18:01:41;;;;;;;15.45;6.88;;;;;;;20.00;62.35;101421.13;10481119;28;20096;-84
2021/08/19 18:06:43;;;;;;;12.45;6.95;;;;;;;19.91;62.50;101421.53;10513584;28;20482;-85
2021/08/19 18:11:44;;;;;;;12.70;6.28;;;;;;;19.72;63.53;101414.59;10513698;28;20036;-85
2021/08/19 18:16:44;;;;;;;10.18;6.07;;;;;;;19.78;63.66;101415.50;10496684;28;20038;-85
2021/08/19 18:21:45;;;;;;;9.18;6.22;;;;;;;19.77;63.13;101422.09;10495102;28;20404;-84
2021/08/19 18:26:45;;;;;;;13.80;6.93;;;;;;;19.59;63.32;101393.72;10530474;28;20105;-85
2021/08/19 18:31:46;;;;;;;9.35;5.95;;;;;;;19.80;63.49;101427.91;10512065;28;20153;-84
2021/08/19 18:36:47;;;;;;;6.82;5.05;;;;;;;19.76;63.32;101423.19;10530138;28;20047;-85
2021/08/19 18:41:47;;;;;;;8.00;6.45;;;;;;;19.58;63.73;101422.25;10511107;28;20100;-84
2021/08/19 18:46:48;;;;;;;10.90;6.63;;;;;;;19.43;62.96;101405.44;10464100;28;20080;-85
2021/08/19 18:51:48;;;;;;;9.07;7.55;;;;;;;19.44;63.42;101423.63;10510302;28;20120;-84
2021/08/19 18:56:49;;;;;;;11.63;7.80;;;;;;;19.37;63.62;101423.75;10529684;28;20386;-84
2021/08/19 19:01:53;;;;;;;9.93;8.32;;;;;;;19.29;63.69;101413.97;10494074;28;20118;-84
2021/08/19 19:06:53;;;;;;;11.23;7.50;;;;;;;19.10;63.84;101392.44;10511490;28;20036;-84
2021/08/19 19:11:54;;;;;;;20.80;8.15;;;;;;;19.33;63.41;101421.72;10528655;28;20391;-84
2021/08/19 19:16:54;;;;;;;11.55;6.85;;;;;;;19.33;63.57;101438.22;10529215;28;20044;-84
2021/08/19 19:21:54;;;;;;;8.13;6.65;;;;;;;19.40;63.14;101427.91;10528642;28;20032;-84
2021/08/19 19:26:57;;;;;;;6.53;5.93;;;;;;;19.25;63.26;101429.28;10493895;28;20044;-84
2021/08/19 19:31:57;;;;;;;6.97;5.93;;;;;;;19.34;63.04;101443.47;10511713;28;20028;-84
2021/08/19 19:36:58;;;;;;;10.05;6.72;;;;;;;19.32;63.02;101442.88;10529435;28;20031;-84
2021/08/19 19:41:58;;;;;;;12.60;6.63;;;;;;;19.28;63.01;101439.78;10528999;28;20096;-84
2021/08/19 19:46:59;;;;;;;7.00;6.25;;;;;;;19.31;63.63;101451.38;10529007;28;20119;-84
2021/08/19 19:52:01;;;;;;;17.77;8.13;;;;;;;18.77;63.41;101375.53;10509911;28;20451;-85
2021/08/19 19:57:02;;;;;;;19.02;6.68;;;;;;;18.88;63.41;101408.69;10494030;28;20024;-85
2021/08/19 20:02:03;;;;;;;12.80;7.68;;;;;;;19.00;63.35;101412.25;10493623;28;20514;-85
2021/08/19 20:07:03;;;;;;;13.82;6.18;;;;;;;19.24;63.06;101443.22;10526676;28;20032;-85
2021/08/19 20:12:04;;;;;;;9.40;6.10;;;;;;;18.85;63.61;101437.44;10492960;28;20058;-85
2021/08/19 20:17:05;;;;;;;14.13;6.10;;;;;;;18.85;63.99;101456.66;10529077;28;20136;-86
2021/08/19 20:22:07;;;;;;;8.82;5.88;;;;;;;18.32;63.94;101410.94;10498552;28;20167;-84
2021/08/19 20:27:08;;;;;;;16.20;6.68;;;;;;;18.39;64.76;101466.50;10517968;28;20056;-84
2021/08/19 20:32:09;;;;;;;9.27;7.53;;;;;;;18.21;64.87;101470.13;10517633;28;20153;-84
2021/08/19 20:37:09;;;;;;;7.60;5.80;;;;;;;17.89;64.84;101432.03;10517859;28;20036;-84
2021/08/19 20:42:10;;;;;;;13.77;7.47;;;;;;;17.56;65.17;101413.31;10517921;28;20123;-84
2021/08/19 20:47:10;;;;;;;10.48;6.78;;;;;;;17.63;65.73;101452.38;10517643;28;20032;-85
2021/08/19 20:52:11;;;;;;;16.33;8.70;;;;;;;17.24;66.08;101403.63;10516564;28;20192;-84
2021/08/19 20:57:11;;;;;;;11.00;7.88;;;;;;;17.53;66.50;101481.41;10517124;28;20450;-85
2021/08/19 21:02:15;;;;;;;10.10;7.53;;;;;;;17.43;66.55;101474.56;10500411;28;20032;-84
2021/08/19 21:07:18;;;;;;;9.70;7.50;;;;;;;17.38;66.78;101471.66;10516274;28;20032;-84
2021/08/19 21:12:20;;;;;;;13.30;8.68;;;;;;;16.11;67.18;101295.41;10499994;28;20130;-84
2021/08/19 21:17:21;;;;;;;12.07;7.50;;;;;;;17.26;67.17;101483.59;10516919;28;20036;-84
2021/08/19 21:22:21;;;;;;;10.70;7.82;;;;;;;16.91;66.90;101448.59;10514911;28;20028;-84
2021/08/19 21:27:22;;;;;;;16.27;9.23;;;;;;;16.82;66.97;101434.41;10465476;28;20052;-85
2021/08/19 21:32:25;;;;;;;14.00;8.30;;;;;;;16.68;67.59;101424.59;10447199;28;20067;-85
2021/08/19 21:37:29;;;;;;;12.85;8.02;;;;;;;16.86;67.51;101467.59;10431954;28;20044;-85
2021/08/19 21:42:31;;;;;;;16.98;9.32;;;;;;;16.90;67.74;101477.84;10452208;28;20064;-85
2021/08/19 21:47:31;;;;;;;9.95;8.95;;;;;;;16.77;67.81;101491.66;10449928;28;20368;-85
2021/08/19 21:52:33;;;;;;;14.63;9.63;;;;;;;16.74;67.98;101481.97;10449139;28;20123;-85
2021/08/19 21:57:34;;;;;;;16.73;9.68;;;;;;;16.45;67.77;101430.72;10430744;28;20037;-85
2021/08/19 22:02:36;;;;;;;28.23;11.05;;;;;;;16.60;67.73;101474.13;10447288;28;20033;-85
2021/08/19 22:07:37;;;;;;;19.23;11.85;;;;;;;16.55;67.76;101482.16;10430485;28;20484;-85
2021/08/19 22:12:41;;;;;;;11.35;9.60;;;;;;;16.37;67.63;101470.09;10430143;28;20048;-86
2021/08/19 22:17:42;;;;;;;18.88;11.77;;;;;;;16.38;68.33;101471.75;10413809;28;20406;-85
2021/08/19 22:22:42;;;;;;;21.63;12.93;;;;;;;16.17;68.76;101442.06;10451877;28;20087;-85
2021/08/19 22:27:43;;;;;;;17.85;12.50;;;;;;;16.37;68.25;101485.63;10496356;28;20119;-85
2021/08/19 22:32:44;;;;;;;14.15;12.32;;;;;;;16.12;67.65;101445.47;10530559;28;20097;-85
2021/08/19 22:37:44;;;;;;;19.65;13.43;;;;;;;15.80;69.28;101403.66;10511991;28;20083;-86
2021/08/19 22:42:45;;;;;;;19.35;13.32;;;;;;;16.21;69.24;101476.13;10495058;28;20517;-85
2021/08/19 22:47:45;;;;;;;24.85;14.15;;;;;;;16.36;69.85;101478.50;10529894;28;20105;-85
2021/08/19 22:52:46;;;;;;;19.98;11.70;;;;;;;16.56;70.00;101478.34;10510356;28;20093;-85
2021/08/19 22:57:47;;;;;;;21.92;13.40;;;;;;;16.51;70.75;101465.34;10478413;28;20405;-85
2021/08/19 23:02:48;;;;;;;20.02;12.35;;;;;;;16.63;71.09;101481.88;10494975;28;20401;-85